createdAt,value
2018-10-12T00:04:09.714Z,16.90
2018-10-12T00:09:04.322Z,16.90
2018-10-12T00:13:57.706Z,17.00
2018-10-12T00:18:51.001Z,16.90
2018-10-12T00:23:44.266Z,16.80
2018-10-12T00:28:37.566Z,16.80
2018-10-12T00:33:30.891Z,16.70
2018-10-12T00:38:24.128Z,16.60
2018-10-12T00:43:17.433Z,16.50
2018-10-12T00:48:10.695Z,16.50
2018-10-12T00:53:04.014Z,16.40
2018-10-12T00:57:57.265Z,16.30
2018-10-12T01:02:50.540Z,16.30
2018-10-12T01:07:43.942Z,16.20
2018-10-12T01:12:37.761Z,16.20
2018-10-12T01:17:31.839Z,16.10
2018-10-12T01:22:26.032Z,16.00
2018-10-12T01:27:19.311Z,16.10
2018-10-12T01:32:18.349Z,16.10
2018-10-12T01:37:11.645Z,16.20
2018-10-12T01:42:04.908Z,16.30
2018-10-12T01:46:58.192Z,16.30
2018-10-12T01:51:51.461Z,16.50
2018-10-12T01:56:44.734Z,16.40
2018-10-12T02:01:37.963Z,16.30
2018-10-12T02:06:31.257Z,16.30
2018-10-12T02:11:24.570Z,16.30
2018-10-12T02:16:18.808Z,16.20
2018-10-12T02:21:12.129Z,16.10
2018-10-12T02:26:05.532Z,16.10
2018-10-12T02:30:58.843Z,16.00
2018-10-12T02:35:52.089Z,16.00
2018-10-12T02:40:45.381Z,16.00
2018-10-12T02:45:38.590Z,15.90
2018-10-12T02:50:31.823Z,15.90
2018-10-12T02:55:25.095Z,16.00
2018-10-12T03:00:18.377Z,15.90
2018-10-12T03:05:11.609Z,15.80
2018-10-12T03:10:04.924Z,15.80
2018-10-12T03:14:58.200Z,15.90
2018-10-12T03:19:51.441Z,16.00
2018-10-12T03:24:44.707Z,16.00
2018-10-12T03:29:38.621Z,16.10
2018-10-12T03:34:32.084Z,16.10
2018-10-12T03:39:25.408Z,16.10
2018-10-12T03:44:18.675Z,16.00
2018-10-12T03:49:11.975Z,15.90
2018-10-12T03:54:05.215Z,15.90
2018-10-12T03:58:58.596Z,15.90
2018-10-12T04:03:51.853Z,15.90
2018-10-12T04:08:45.131Z,15.80
2018-10-12T04:13:38.347Z,15.70
2018-10-12T04:18:31.625Z,15.60
2018-10-12T04:23:24.892Z,15.60
2018-10-12T04:28:18.157Z,15.50
2018-10-12T04:33:12.419Z,15.40
2018-10-12T04:38:06.153Z,15.50
2018-10-12T04:42:59.742Z,15.60
2018-10-12T04:47:53.219Z,15.60
2018-10-12T04:52:46.503Z,15.40
2018-10-12T04:57:39.791Z,15.40
2018-10-12T05:02:33.054Z,15.30
2018-10-12T05:07:27.570Z,15.30
2018-10-12T05:12:20.856Z,15.30
2018-10-12T05:17:14.184Z,15.30
2018-10-12T05:22:07.653Z,15.20
2018-10-12T05:27:00.852Z,15.20
2018-10-12T05:31:54.074Z,15.20
2018-10-12T05:36:47.635Z,15.20
2018-10-12T05:41:41.727Z,15.30
2018-10-12T05:46:34.988Z,15.30
2018-10-12T05:51:28.370Z,15.40
2018-10-12T05:56:38.909Z,15.40
2018-10-12T06:01:32.174Z,15.40
2018-10-12T06:06:25.448Z,15.40
2018-10-12T06:11:18.785Z,15.40
2018-10-12T06:16:12.028Z,15.50
2018-10-12T06:21:05.483Z,15.60
2018-10-12T06:25:58.984Z,15.90
2018-10-12T06:30:52.231Z,16.10
2018-10-12T06:35:45.477Z,16.30
2018-10-12T06:40:38.776Z,16.50
2018-10-12T06:45:32.051Z,16.60
2018-10-12T06:50:25.288Z,16.60
2018-10-12T06:55:18.496Z,16.60
2018-10-12T07:00:11.781Z,16.80
2018-10-12T07:05:05.151Z,17.10
2018-10-12T07:09:58.447Z,18.00
2018-10-12T07:14:51.718Z,18.40
2018-10-12T07:19:44.953Z,18.60
2018-10-12T07:24:38.236Z,19.50
2018-10-12T07:29:31.513Z,19.70
2018-10-12T07:34:24.803Z,20.70
2018-10-12T07:39:18.769Z,20.50
2018-10-12T07:44:11.988Z,19.70
2018-10-12T07:49:05.509Z,19.30
2018-10-12T07:53:58.759Z,20.70
2018-10-12T07:58:52.210Z,21.60
2018-10-12T08:03:45.450Z,21.00
2018-10-12T08:08:38.716Z,21.40
2018-10-12T08:13:32.038Z,21.10
2018-10-12T08:18:26.833Z,21.10
2018-10-12T08:23:20.129Z,20.60
2018-10-12T08:28:13.492Z,20.20
2018-10-12T08:33:07.473Z,20.10
2018-10-12T08:38:00.817Z,19.80
2018-10-12T08:42:54.043Z,19.80
2018-10-12T08:47:47.336Z,19.90
2018-10-12T08:52:40.601Z,20.10
2018-10-12T08:57:33.863Z,20.20
2018-10-12T09:02:27.086Z,20.50
2018-10-12T09:07:21.357Z,20.50
2018-10-12T09:12:14.663Z,20.60
2018-10-12T09:17:11.809Z,20.80
2018-10-12T09:22:11.721Z,20.70
2018-10-12T09:27:08.126Z,20.70
2018-10-12T09:32:06.332Z,20.90
2018-10-12T09:37:04.974Z,20.80
2018-10-12T09:42:07.049Z,20.90
2018-10-12T09:47:05.556Z,21.30
2018-10-12T09:52:03.992Z,21.70
2018-10-12T09:57:06.905Z,22.10
2018-10-12T10:02:09.159Z,22.40
2018-10-12T10:07:07.399Z,22.90
2018-10-12T10:12:06.161Z,23.20
2018-10-12T10:17:03.403Z,23.20
2018-10-12T10:22:01.899Z,23.40
2018-10-12T10:26:59.506Z,23.50
2018-10-12T10:31:56.952Z,23.10
2018-10-12T10:36:55.220Z,23.20
2018-10-12T10:41:56.732Z,23.40
2018-10-12T10:46:55.857Z,23.30
2018-10-12T10:51:53.543Z,23.40
2018-10-12T10:56:51.264Z,23.50
2018-10-12T11:01:50.496Z,24.00
2018-10-12T11:06:46.506Z,24.10
2018-10-12T11:11:39.816Z,24.40
2018-10-12T11:16:33.434Z,24.40
2018-10-12T11:21:26.664Z,24.40
2018-10-12T11:26:20.051Z,24.40
2018-10-12T11:31:13.314Z,24.80
2018-10-12T11:36:06.786Z,25.10
2018-10-12T11:41:00.168Z,25.40
2018-10-12T11:45:53.459Z,25.50
2018-10-12T11:50:46.711Z,25.70
2018-10-12T11:55:39.958Z,25.80
2018-10-12T12:00:33.237Z,26.00
2018-10-12T12:05:26.503Z,26.00
2018-10-12T12:10:20.440Z,26.10
2018-10-12T12:15:13.698Z,26.20
2018-10-12T12:20:06.995Z,26.20
2018-10-12T12:25:00.412Z,26.50
2018-10-12T12:29:53.725Z,26.60
2018-10-12T12:34:47.061Z,26.60
2018-10-12T12:39:40.264Z,26.70
2018-10-12T12:44:33.547Z,26.50
2018-10-12T12:49:27.028Z,26.90
2018-10-12T12:54:20.723Z,26.80
2018-10-12T12:59:14.057Z,27.00
2018-10-12T13:04:07.451Z,27.10
2018-10-12T13:09:00.721Z,27.00
2018-10-12T13:13:53.999Z,27.20
2018-10-12T13:18:47.380Z,27.20
2018-10-12T13:23:40.667Z,27.00
2018-10-12T13:28:34.047Z,27.20
2018-10-12T13:33:27.306Z,26.90
2018-10-12T13:38:21.611Z,27.10
2018-10-12T13:43:14.868Z,27.10
2018-10-12T13:48:08.117Z,27.10
2018-10-12T13:53:01.429Z,27.30
2018-10-12T13:57:54.685Z,27.20
2018-10-12T14:02:47.940Z,27.10
2018-10-12T14:07:41.253Z,26.90
2018-10-12T14:12:35.179Z,26.80
2018-10-12T14:17:28.484Z,26.60
2018-10-12T14:22:21.757Z,26.60
2018-10-12T14:27:15.708Z,26.50
2018-10-12T14:32:09.014Z,26.50
2018-10-12T14:37:02.288Z,26.50
2018-10-12T14:41:55.580Z,26.50
2018-10-12T14:46:49.309Z,26.30
2018-10-12T14:51:42.645Z,26.20
2018-10-12T14:56:35.958Z,26.10
2018-10-12T15:01:29.218Z,26.00
2018-10-12T15:06:23.076Z,25.90
2018-10-12T15:11:16.526Z,25.80
2018-10-12T15:16:09.768Z,25.80
2018-10-12T15:21:03.061Z,25.80
2018-10-12T15:25:56.520Z,25.70
2018-10-12T15:30:49.797Z,25.70
2018-10-12T15:35:43.066Z,25.60
2018-10-12T15:40:36.664Z,25.50
2018-10-12T15:45:30.585Z,25.40
2018-10-12T15:50:24.164Z,25.30
2018-10-12T15:55:17.343Z,25.20
2018-10-12T16:00:13.186Z,25.00
2018-10-12T16:05:06.624Z,24.80
2018-10-12T16:09:59.982Z,24.60
2018-10-12T16:14:53.367Z,24.40
2018-10-12T16:19:46.564Z,24.30
2018-10-12T16:24:59.660Z,24.10
2018-10-12T16:29:53.717Z,24.00
2018-10-12T16:34:47.204Z,23.90
2018-10-12T16:39:40.486Z,23.80
2018-10-12T16:44:33.808Z,23.70
2018-10-12T16:49:27.066Z,23.70
2018-10-12T16:54:20.325Z,23.60
2018-10-12T16:59:14.231Z,23.50
2018-10-12T17:04:07.635Z,23.40
2018-10-12T17:09:00.913Z,23.20
2018-10-12T17:13:54.243Z,23.00
2018-10-12T17:18:47.571Z,22.90
2018-10-12T17:23:40.854Z,22.80
2018-10-12T17:28:34.838Z,22.60
2018-10-12T17:33:29.222Z,22.50
2018-10-12T17:38:22.462Z,22.40
2018-10-12T17:43:16.291Z,22.20
2018-10-12T17:48:09.747Z,22.10
2018-10-12T17:53:03.015Z,22.10
2018-10-12T17:57:56.317Z,21.90
2018-10-12T18:02:49.626Z,21.80
2018-10-12T18:07:42.890Z,21.70
2018-10-12T18:12:36.179Z,21.70
2018-10-12T18:17:29.444Z,21.70
2018-10-12T18:22:22.720Z,21.70
2018-10-12T18:27:15.965Z,21.60
2018-10-12T18:32:09.216Z,21.40
2018-10-12T18:37:02.509Z,21.30
2018-10-12T18:41:55.694Z,21.30
2018-10-12T18:46:48.953Z,21.20
2018-10-12T18:51:42.259Z,21.20
2018-10-12T18:56:35.766Z,21.10
2018-10-12T19:01:29.056Z,21.00
2018-10-12T19:06:22.323Z,20.90
2018-10-12T19:11:15.599Z,20.80
2018-10-12T19:16:09.449Z,20.60
2018-10-12T19:21:02.735Z,20.50
2018-10-12T19:25:56.031Z,20.50
2018-10-12T19:30:49.865Z,20.40
2018-10-12T19:35:43.069Z,20.40
2018-10-12T19:40:36.310Z,20.30
2018-10-12T19:45:29.640Z,20.20
2018-10-12T19:50:22.864Z,20.20
2018-10-12T19:55:16.130Z,20.00
2018-10-12T20:00:10.339Z,20.00
2018-10-12T20:05:03.761Z,19.90
2018-10-12T20:09:56.998Z,19.80
2018-10-12T20:14:50.258Z,19.70
2018-10-12T20:19:43.509Z,19.80
2018-10-12T20:24:36.987Z,19.80
2018-10-12T20:29:30.887Z,19.80
2018-10-12T20:34:24.121Z,19.90
2018-10-12T20:39:17.435Z,19.80
2018-10-12T20:44:10.628Z,19.70
2018-10-12T20:49:04.128Z,19.70
2018-10-12T20:53:58.806Z,19.70
2018-10-12T20:58:52.769Z,19.70
2018-10-12T21:03:46.113Z,19.60
2018-10-12T21:08:39.333Z,19.50
2018-10-12T21:13:32.616Z,19.40
2018-10-12T21:18:26.677Z,19.30
2018-10-12T21:23:19.965Z,19.20
2018-10-12T21:28:13.311Z,19.20
2018-10-12T21:33:06.526Z,19.10
2018-10-12T21:37:59.830Z,19.10
2018-10-12T21:42:53.058Z,19.10
2018-10-12T21:47:46.935Z,19.00
2018-10-12T21:52:40.264Z,19.00
2018-10-12T21:57:33.461Z,19.00
2018-10-12T22:02:27.190Z,19.00
2018-10-12T22:07:20.462Z,19.00
2018-10-12T22:12:13.715Z,19.00
2018-10-12T22:17:06.991Z,19.10
2018-10-12T22:22:00.263Z,19.20
2018-10-12T22:26:53.592Z,19.20
2018-10-12T22:31:46.909Z,19.30
2018-10-12T22:36:40.175Z,19.30
2018-10-12T22:41:33.413Z,19.30
2018-10-12T22:51:31.978Z,19.30
2018-10-12T22:56:25.189Z,19.30
2018-10-12T23:01:18.453Z,19.30
2018-10-12T23:06:11.797Z,19.30
2018-10-12T23:11:05.505Z,19.30
2018-10-12T23:15:59.348Z,19.30
2018-10-12T23:20:52.640Z,19.20
2018-10-12T23:25:45.855Z,19.20
2018-10-12T23:30:39.151Z,19.10
2018-10-12T23:35:32.423Z,19.10
2018-10-12T23:40:25.688Z,19.00
2018-10-12T23:45:18.946Z,18.90
2018-10-12T23:50:12.212Z,18.80
2018-10-12T23:55:05.615Z,18.70
2018-10-12T23:59:58.843Z,18.50
